Time;durP1;ratioP1;P1;durP2;ratioP2;P2;SDS_P1;SDS_P2;PMS_P1;PMS_P2;Temp;Humidity;BMP_temperature;BMP_pressure;BME280_temperature;BME280_humidity;BME280_pressure;Samples;Min_cycle;Max_cycle;Signal;HPM_P1;HPM_P2
2023/04/19 00:01:15;;;;;;;;;;;9.70;99.90;;;;;;5132905;27;19972;-76
2023/04/19 00:03:41;;;;;;;;;;;9.70;99.90;;;;;;5108290;28;20019;-76
2023/04/19 00:06:07;;;;;;;;;;;9.70;99.90;;;;;;5111632;28;19923;-75
2023/04/19 00:08:33;;;;;;;;;;;9.70;99.90;;;;;;5112128;27;19923;-75
2023/04/19 00:10:58;;;;;;;;;;;9.70;99.90;;;;;;5131923;27;19919;-75
2023/04/19 00:13:24;;;;;;;;;;;9.70;99.90;;;;;;5112513;27;19919;-75
2023/04/19 00:15:49;;;;;;;;;;;9.70;99.90;;;;;;5111961;28;20411;-79
2023/04/19 00:18:15;;;;;;;;;;;9.70;99.90;;;;;;5092672;28;20399;-75
2023/04/19 00:20:41;;;;;;;;;;;9.70;99.90;;;;;;5109701;27;20060;-75
2023/04/19 00:23:07;;;;;;;;;;;9.70;99.90;;;;;;5112692;27;19923;-75
2023/04/19 00:25:33;;;;;;;;;;;9.70;99.90;;;;;;5093215;28;19945;-75
2023/04/19 00:27:59;;;;;;;;;;;9.70;99.90;;;;;;5093477;28;19920;-76
2023/04/19 00:30:24;;;;;;;;;;;9.70;99.90;;;;;;5111632;28;20346;-76
2023/04/19 00:32:50;;;;;;;;;;;9.80;99.90;;;;;;5111111;28;19947;-75
2023/04/19 00:35:16;;;;;;;;;;;9.80;99.90;;;;;;5110740;28;20010;-76
2023/04/19 00:37:41;;;;;;;;;;;9.80;99.90;;;;;;5110504;28;19942;-75
2023/04/19 00:40:07;;;;;;;;;;;9.80;99.90;;;;;;5111074;28;19923;-76
2023/04/19 00:42:33;;;;;;;;;;;9.80;99.90;;;;;;5108085;28;20448;-75
2023/04/19 00:44:58;;;;;;;;;;;9.70;99.90;;;;;;5121118;28;19923;-76
2023/04/19 00:47:24;;;;;;;;;;;9.70;99.90;;;;;;5110747;28;19924;-75
2023/04/19 00:49:49;;;;;;;;;;;9.70;99.90;;;;;;5117592;28;20390;-76
2023/04/19 00:52:15;;;;;;;;;;;9.70;99.90;;;;;;5113234;28;19924;-73
2023/04/19 00:54:41;;;;;;;;;;;9.70;99.90;;;;;;5131160;28;19930;-74
2023/04/19 00:57:07;;;;;;;;;;;9.80;99.90;;;;;;5129904;28;20026;-73
2023/04/19 00:59:33;;;;;;;;;;;9.80;99.90;;;;;;5129035;28;20010;-73
2023/04/19 01:01:59;;;;;;;;;;;9.80;99.90;;;;;;5124117;28;20718;-73
2023/04/19 01:04:24;;;;;;;;;;;9.80;99.90;;;;;;5125492;28;19919;-73
2023/04/19 01:06:50;;;;;;;;;;;9.80;99.90;;;;;;5131854;28;20360;-74
2023/04/19 01:09:16;;;;;;;;;;;9.80;99.90;;;;;;5130501;28;19915;-73
2023/04/19 01:11:41;;;;;;;;;;;9.70;99.90;;;;;;5129126;28;19923;-74
2023/04/19 01:14:07;;;;;;;;;;;9.70;99.90;;;;;;5110780;28;19983;-73
2023/04/19 01:16:32;;;;;;;;;;;9.70;99.90;;;;;;5111308;28;20015;-73
2023/04/19 01:18:58;;;;;;;;;;;9.70;99.90;;;;;;5129846;28;19920;-75
2023/04/19 01:21:24;;;;;;;;;;;9.70;99.90;;;;;;5113719;28;19923;-73
2023/04/19 01:23:51;;;;;;;;;;;9.70;99.90;;;;;;5098851;28;19919;-73
2023/04/19 01:26:17;;;;;;;;;;;9.70;99.90;;;;;;5110476;28;19923;-73
2023/04/19 01:28:42;;;;;;;;;;;9.60;99.90;;;;;;5111074;28;19920;-73
2023/04/19 01:31:08;;;;;;;;;;;9.70;99.90;;;;;;5092691;28;19983;-73
2023/04/19 01:33:34;;;;;;;;;;;9.60;99.90;;;;;;5109187;28;20019;-73
2023/04/19 01:35:59;;;;;;;;;;;9.60;99.90;;;;;;5092500;28;19920;-77
2023/04/19 01:38:25;;;;;;;;;;;9.60;99.90;;;;;;5121364;28;20428;-75
2023/04/19 01:40:50;;;;;;;;;;;9.60;99.90;;;;;;5131608;28;19926;-75
2023/04/19 01:43:16;;;;;;;;;;;9.60;99.90;;;;;;5131096;28;19925;-77
2023/04/19 01:45:42;;;;;;;;;;;9.50;99.90;;;;;;5113576;28;19923;-75
2023/04/19 01:48:07;;;;;;;;;;;9.50;99.90;;;;;;5130326;28;19923;-74
2023/04/19 01:50:33;;;;;;;;;;;9.50;99.90;;;;;;5128714;28;19951;-76
2023/04/19 01:52:59;;;;;;;;;;;9.50;99.90;;;;;;5097198;28;19926;-78
2023/04/19 01:55:25;;;;;;;;;;;9.50;99.90;;;;;;5101352;28;19939;-76
2023/04/19 01:57:54;;;;;;;;;;;9.40;99.90;;;;;;5131257;28;20478;-75
2023/04/19 02:00:19;;;;;;;;;;;9.40;99.90;;;;;;5132752;27;19931;-75
2023/04/19 02:02:45;;;;;;;;;;;9.40;99.90;;;;;;5134568;27;19919;-75
2023/04/19 02:05:10;;;;;;;;;;;9.40;99.90;;;;;;5115036;27;20315;-76
2023/04/19 02:07:36;;;;;;;;;;;9.40;99.90;;;;;;5134391;27;19919;-76
2023/04/19 02:10:03;;;;;;;;;;;9.40;99.90;;;;;;5110045;27;20288;-79
2023/04/19 02:12:29;;;;;;;;;;;9.30;99.90;;;;;;5116708;27;20352;-75
2023/04/19 02:14:58;;;;;;;;;;;9.30;99.90;;;;;;5134950;27;20033;-75
2023/04/19 02:17:24;;;;;;;;;;;9.20;99.90;;;;;;5133745;27;19924;-76
2023/04/19 02:19:50;;;;;;;;;;;9.30;99.90;;;;;;5116081;27;20428;-75
2023/04/19 02:22:16;;;;;;;;;;;9.20;99.90;;;;;;5124951;27;20006;-75
2023/04/19 02:24:41;;;;;;;;;;;9.20;99.90;;;;;;5113257;28;19920;-76
2023/04/19 02:27:07;;;;;;;;;;;9.20;99.90;;;;;;5110553;27;19945;-75
2023/04/19 02:29:32;;;;;;;;;;;9.20;99.90;;;;;;5098252;27;20607;-75
2023/04/19 02:31:58;;;;;;;;;;;9.20;99.90;;;;;;5094788;28;19924;-76
2023/04/19 02:34:24;;;;;;;;;;;9.10;99.90;;;;;;5112197;28;20101;-75
2023/04/19 02:36:50;;;;;;;;;;;9.10;99.90;;;;;;5113233;28;20030;-75
2023/04/19 02:39:18;;;;;;;;;;;9.10;99.90;;;;;;5094498;28;19978;-74
2023/04/19 02:41:44;;;;;;;;;;;9.10;99.90;;;;;;5113707;28;19926;-75
2023/04/19 02:44:09;;;;;;;;;;;9.10;99.90;;;;;;5113307;28;19998;-76
2023/04/19 02:46:35;;;;;;;;;;;9.10;99.90;;;;;;5107041;27;19919;-76
2023/04/19 02:49:01;;;;;;;;;;;9.10;99.90;;;;;;5133281;27;19972;-75
2023/04/19 02:51:26;;;;;;;;;;;9.10;99.90;;;;;;5128081;27;19920;-74
2023/04/19 02:53:52;;;;;;;;;;;9.10;99.90;;;;;;5112670;28;20288;-75
2023/04/19 02:56:17;;;;;;;;;;;9.10;99.90;;;;;;5112927;28;19952;-74
2023/04/19 02:58:43;;;;;;;;;;;9.10;99.90;;;;;;5112239;28;19920;-74
2023/04/19 03:01:09;;;;;;;;;;;9.00;99.90;;;;;;5131353;27;19919;-75
2023/04/19 03:03:34;;;;;;;;;;;9.10;99.90;;;;;;5132795;27;19925;-75
2023/04/19 03:06:00;;;;;;;;;;;9.10;99.90;;;;;;5124927;27;19919;-76
2023/04/19 03:08:25;;;;;;;;;;;9.00;99.90;;;;;;5111902;28;19959;-75
2023/04/19 03:10:51;;;;;;;;;;;9.00;99.90;;;;;;5110259;28;19919;-75
2023/04/19 03:13:16;;;;;;;;;;;8.90;99.90;;;;;;5111451;28;19928;-75
2023/04/19 03:15:42;;;;;;;;;;;8.90;99.90;;;;;;5094911;28;19969;-75
2023/04/19 03:18:08;;;;;;;;;;;8.80;99.90;;;;;;5120923;27;19919;-78
2023/04/19 03:20:33;;;;;;;;;;;8.70;99.90;;;;;;5133060;27;20345;-75
2023/04/19 03:22:59;;;;;;;;;;;8.70;99.90;;;;;;5116541;27;19926;-76
2023/04/19 03:25:25;;;;;;;;;;;8.60;99.90;;;;;;5112150;28;19919;-75
2023/04/19 03:27:51;;;;;;;;;;;8.50;99.90;;;;;;5112895;28;19920;-76
2023/04/19 03:30:17;;;;;;;;;;;8.40;99.90;;;;;;5114743;27;19920;-74
2023/04/19 03:32:42;;;;;;;;;;;8.30;99.90;;;;;;5112302;28;20017;-75
2023/04/19 03:35:08;;;;;;;;;;;8.20;99.90;;;;;;5112400;28;20023;-74
2023/04/19 03:37:34;;;;;;;;;;;8.10;99.90;;;;;;5122488;27;19923;-75
2023/04/19 03:40:00;;;;;;;;;;;8.00;99.90;;;;;;5133028;27;19932;-75
2023/04/19 03:42:25;;;;;;;;;;;8.00;99.90;;;;;;5132509;27;19923;-75
2023/04/19 03:44:51;;;;;;;;;;;7.90;99.90;;;;;;5133120;27;19922;-75
2023/04/19 03:47:16;;;;;;;;;;;7.80;99.90;;;;;;5132002;27;19966;-75
2023/04/19 03:49:42;;;;;;;;;;;7.70;99.90;;;;;;5114339;27;19942;-75
2023/04/19 03:52:08;;;;;;;;;;;7.70;99.90;;;;;;5126897;27;19941;-74
2023/04/19 03:54:33;;;;;;;;;;;7.60;99.90;;;;;;5099176;28;19924;-75
2023/04/19 03:56:59;;;;;;;;;;;7.60;99.90;;;;;;5112336;28;19966;-74
2023/04/19 03:59:25;;;;;;;;;;;7.50;99.90;;;;;;5132128;27;19923;-75
2023/04/19 04:01:50;;;;;;;;;;;7.50;99.90;;;;;;5132496;27;20022;-74
2023/04/19 04:04:16;;;;;;;;;;;7.40;99.90;;;;;;5131718;27;19927;-75
2023/04/19 04:06:41;;;;;;;;;;;7.40;99.90;;;;;;5132542;27;19930;-74
2023/04/19 04:09:07;;;;;;;;;;;7.40;99.90;;;;;;5118942;27;19977;-75
2023/04/19 04:11:33;;;;;;;;;;;7.40;99.90;;;;;;5111931;27;19923;-75
2023/04/19 04:13:58;;;;;;;;;;;7.30;99.90;;;;;;5132535;27;20014;-75
2023/04/19 04:16:24;;;;;;;;;;;7.30;99.90;;;;;;5129789;27;20291;-74
2023/04/19 04:18:49;;;;;;;;;;;7.20;99.90;;;;;;5096226;27;19926;-75
2023/04/19 04:21:15;;;;;;;;;;;7.20;99.90;;;;;;5120721;27;19931;-75
2023/04/19 04:23:40;;;;;;;;;;;7.20;99.90;;;;;;5124285;27;19923;-74
2023/04/19 04:26:08;;;;;;;;;;;7.10;99.90;;;;;;5118242;27;20452;-75
2023/04/19 04:28:34;;;;;;;;;;;7.10;99.90;;;;;;5111275;28;20262;-75
2023/04/19 04:31:00;;;;;;;;;;;7.00;99.90;;;;;;5111485;28;19927;-75
2023/04/19 04:33:26;;;;;;;;;;;7.00;99.90;;;;;;5109924;28;19927;-74
2023/04/19 04:35:53;;;;;;;;;;;7.00;99.90;;;;;;5111447;28;19927;-75
2023/04/19 04:38:19;;;;;;;;;;;6.90;99.90;;;;;;5119730;27;19920;-75
2023/04/19 04:40:53;;;;;;;;;;;6.90;99.90;;;;;;5111600;28;20330;-75
2023/04/19 04:43:28;;;;;;;;;;;6.90;99.90;;;;;;5125552;27;19926;-74
2023/04/19 04:45:56;;;;;;;;;;;6.90;99.90;;;;;;5120700;27;19924;-74
2023/04/19 04:48:21;;;;;;;;;;;6.80;99.90;;;;;;5110007;28;19973;-76
2023/04/19 04:50:47;;;;;;;;;;;6.80;99.90;;;;;;5110611;28;20396;-75
2023/04/19 04:53:13;;;;;;;;;;;6.80;99.90;;;;;;5110562;28;19972;-75
2023/04/19 04:55:38;;;;;;;;;;;6.80;99.90;;;;;;5110967;28;19926;-74
2023/04/19 04:58:06;;;;;;;;;;;6.70;99.90;;;;;;5117866;28;19955;-74
2023/04/19 05:00:32;;;;;;;;;;;6.70;99.90;;;;;;5113109;28;19923;-75
2023/04/19 05:02:58;;;;;;;;;;;6.70;99.90;;;;;;5124117;28;19992;-75
2023/04/19 05:05:24;;;;;;;;;;;6.70;99.90;;;;;;5110352;28;19923;-74
2023/04/19 05:07:49;;;;;;;;;;;6.70;99.90;;;;;;5109180;28;20035;-74
2023/04/19 05:10:15;;;;;;;;;;;6.60;99.90;;;;;;5122001;28;19923;-77
2023/04/19 05:12:41;;;;;;;;;;;6.60;99.90;;;;;;5131488;28;19919;-75
2023/04/19 05:15:06;;;;;;;;;;;6.60;99.90;;;;;;5113583;28;19974;-75
2023/04/19 05:17:32;;;;;;;;;;;6.60;99.90;;;;;;5130563;28;20068;-76
2023/04/19 05:19:58;;;;;;;;;;;6.70;99.90;;;;;;5117972;28;19976;-75
2023/04/19 05:22:23;;;;;;;;;;;6.60;99.90;;;;;;5110742;28;19927;-75
2023/04/19 05:24:49;;;;;;;;;;;6.60;99.90;;;;;;5126503;28;20019;-74
2023/04/19 05:27:15;;;;;;;;;;;6.60;99.90;;;;;;5130083;28;20028;-76
2023/04/19 05:29:40;;;;;;;;;;;6.60;99.90;;;;;;5117835;28;20398;-74
2023/04/19 05:32:06;;;;;;;;;;;6.70;99.90;;;;;;5131327;28;19945;-75
2023/04/19 05:34:32;;;;;;;;;;;6.60;99.90;;;;;;5113188;27;19926;-74
2023/04/19 05:36:58;;;;;;;;;;;6.70;99.90;;;;;;5135306;27;19923;-74
2023/04/19 05:39:24;;;;;;;;;;;6.70;99.90;;;;;;5131816;27;20014;-74
2023/04/19 05:41:49;;;;;;;;;;;6.70;99.90;;;;;;5115263;27;19920;-74
2023/04/19 05:44:15;;;;;;;;;;;6.70;99.90;;;;;;5114480;28;19923;-75
2023/04/19 05:46:40;;;;;;;;;;;6.80;99.90;;;;;;5128040;27;20014;-75
2023/04/19 05:49:06;;;;;;;;;;;6.80;99.90;;;;;;5134763;27;19983;-74
2023/04/19 05:51:31;;;;;;;;;;;6.80;99.90;;;;;;5134811;27;19930;-75
2023/04/19 05:53:59;;;;;;;;;;;6.80;99.90;;;;;;5134424;27;19980;-74
2023/04/19 05:56:24;;;;;;;;;;;6.90;99.90;;;;;;5134598;27;19925;-74
2023/04/19 05:58:50;;;;;;;;;;;6.90;99.90;;;;;;5116566;27;19919;-74
2023/04/19 06:01:15;;;;;;;;;;;7.00;99.90;;;;;;5122246;27;19924;-74
2023/04/19 06:03:41;;;;;;;;;;;7.00;99.90;;;;;;5127265;27;20679;-74
2023/04/19 06:06:06;;;;;;;;;;;7.10;99.90;;;;;;5114099;28;20044;-74
2023/04/19 06:08:32;;;;;;;;;;;7.10;99.90;;;;;;5113000;28;19919;-75
2023/04/19 06:10:58;;;;;;;;;;;7.20;99.90;;;;;;5124394;27;19930;-75
2023/04/19 06:13:23;;;;;;;;;;;7.20;99.90;;;;;;5133727;27;19935;-75
2023/04/19 06:15:49;;;;;;;;;;;7.30;99.90;;;;;;5134899;27;20287;-75
2023/04/19 06:18:15;;;;;;;;;;;7.40;99.90;;;;;;5133804;27;19966;-74
2023/04/19 06:20:41;;;;;;;;;;;7.40;99.90;;;;;;5113459;27;19916;-74
2023/04/19 06:23:06;;;;;;;;;;;7.50;99.90;;;;;;5115589;27;19923;-78
2023/04/19 06:25:32;;;;;;;;;;;7.50;99.90;;;;;;5098937;27;19946;-71
2023/04/19 06:27:57;;;;;;;;;;;7.60;99.90;;;;;;5116335;27;19927;-71
2023/04/19 06:30:23;;;;;;;;;;;7.70;99.90;;;;;;5134066;27;19927;-75
2023/04/19 06:32:49;;;;;;;;;;;7.70;99.90;;;;;;5133698;27;19923;-70
2023/04/19 06:35:14;;;;;;;;;;;7.70;99.90;;;;;;5127171;27;19920;-72
2023/04/19 06:37:40;;;;;;;;;;;7.80;99.90;;;;;;5132121;27;19980;-71
2023/04/19 06:40:07;;;;;;;;;;;7.80;99.90;;;;;;5134446;27;19919;-72
2023/04/19 06:42:33;;;;;;;;;;;7.90;99.90;;;;;;5129986;27;20303;-71
2023/04/19 06:44:59;;;;;;;;;;;7.90;99.90;;;;;;5115830;27;19919;-70
2023/04/19 06:47:25;;;;;;;;;;;8.00;99.90;;;;;;5104789;27;19966;-72
2023/04/19 06:49:50;;;;;;;;;;;8.10;99.90;;;;;;5119977;27;19970;-71
2023/04/19 06:52:16;;;;;;;;;;;8.10;99.90;;;;;;5113649;28;19920;-71
2023/04/19 06:54:45;;;;;;;;;;;8.20;99.90;;;;;;5112233;28;19984;-72
2023/04/19 06:57:11;;;;;;;;;;;8.20;99.90;;;;;;5113295;28;19919;-72
2023/04/19 06:59:38;;;;;;;;;;;8.30;99.90;;;;;;5112949;28;19919;-71
2023/04/19 07:02:04;;;;;;;;;;;8.30;99.90;;;;;;5113103;28;19919;-72
2023/04/19 07:04:30;;;;;;;;;;;8.40;99.90;;;;;;5122411;27;19945;-71
2023/04/19 07:06:55;;;;;;;;;;;8.40;99.90;;;;;;5113542;27;20011;-71
2023/04/19 07:09:21;;;;;;;;;;;8.50;99.90;;;;;;5100392;27;19955;-71
2023/04/19 07:11:47;;;;;;;;;;;8.50;99.90;;;;;;5113152;27;20346;-71
2023/04/19 07:14:12;;;;;;;;;;;8.60;99.90;;;;;;5113240;28;19919;-70
2023/04/19 07:16:38;;;;;;;;;;;8.60;99.90;;;;;;5111879;27;19980;-71
2023/04/19 07:19:04;;;;;;;;;;;8.70;99.90;;;;;;5112366;28;19923;-70
2023/04/19 07:21:32;;;;;;;;;;;8.80;99.90;;;;;;5112501;28;19931;-71
2023/04/19 07:23:58;;;;;;;;;;;8.80;98.90;;;;;;5117391;27;19927;-70
2023/04/19 07:26:23;;;;;;;;;;;8.90;99.00;;;;;;5105291;28;19920;-71
2023/04/19 07:28:49;;;;;;;;;;;9.00;99.30;;;;;;5112322;28;19924;-70
2023/04/19 07:31:15;;;;;;;;;;;9.10;99.00;;;;;;5112968;28;19926;-71
2023/04/19 07:33:41;;;;;;;;;;;9.10;99.00;;;;;;5117390;27;19923;-70
2023/04/19 07:36:07;;;;;;;;;;;9.20;99.00;;;;;;5133350;27;20010;-70
2023/04/19 07:38:33;;;;;;;;;;;9.30;98.50;;;;;;5131882;27;20018;-74
2023/04/19 07:40:58;;;;;;;;;;;9.30;97.60;;;;;;5108824;27;19924;-76
2023/04/19 07:43:24;;;;;;;;;;;9.40;96.60;;;;;;5119643;27;19967;-73
2023/04/19 07:45:51;;;;;;;;;;;9.40;96.40;;;;;;5112487;27;20380;-71
2023/04/19 07:48:16;;;;;;;;;;;9.40;97.10;;;;;;5115630;27;19920;-73
2023/04/19 07:50:42;;;;;;;;;;;9.40;95.90;;;;;;5110896;28;19942;-72
2023/04/19 07:53:07;;;;;;;;;;;9.50;96.10;;;;;;5113093;27;20018;-71
2023/04/19 07:55:33;;;;;;;;;;;9.50;95.50;;;;;;5113978;27;19924;-71
2023/04/19 07:57:59;;;;;;;;;;;9.60;94.60;;;;;;5131462;27;19930;-72
2023/04/19 08:00:25;;;;;;;;;;;9.60;94.20;;;;;;5131664;27;19980;-71
2023/04/19 08:02:50;;;;;;;;;;;9.70;94.10;;;;;;5118379;27;19989;-70
2023/04/19 08:05:16;;;;;;;;;;;9.80;94.30;;;;;;5110340;27;19942;-72
2023/04/19 08:07:42;;;;;;;;;;;9.90;93.70;;;;;;5110585;27;19924;-72
2023/04/19 08:10:08;;;;;;;;;;;10.00;93.30;;;;;;5110962;27;19923;-72
2023/04/19 08:12:36;;;;;;;;;;;10.10;91.30;;;;;;5131353;27;20325;-71
2023/04/19 08:15:02;;;;;;;;;;;10.10;90.80;;;;;;5126261;27;19919;-73
2023/04/19 08:17:28;;;;;;;;;;;10.20;91.20;;;;;;5119429;27;19923;-70
2023/04/19 08:19:53;;;;;;;;;;;10.20;91.00;;;;;;5131082;27;19925;-71
2023/04/19 08:22:20;;;;;;;;;;;10.20;90.90;;;;;;5125156;27;19923;-73
2023/04/19 08:24:47;;;;;;;;;;;10.30;89.60;;;;;;5124705;27;19919;-74
2023/04/19 08:27:13;;;;;;;;;;;10.70;89.00;;;;;;5129711;27;19971;-74
2023/04/19 08:29:39;;;;;;;;;;;10.50;87.10;;;;;;5130534;27;19965;-74
2023/04/19 08:32:05;;;;;;;;;;;10.50;88.30;;;;;;5110970;28;20291;-74
2023/04/19 08:34:30;;;;;;;;;;;10.60;83.30;;;;;;5111779;28;20014;-75
2023/04/19 08:36:56;;;;;;;;;;;10.90;82.00;;;;;;5131273;27;19965;-74
2023/04/19 08:39:22;;;;;;;;;;;10.70;81.80;;;;;;5129896;27;19970;-74
2023/04/19 08:41:48;;;;;;;;;;;10.80;82.60;;;;;;5110440;28;19923;-71
2023/04/19 08:44:15;;;;;;;;;;;10.90;80.80;;;;;;5115980;27;19985;-71
2023/04/19 08:46:41;;;;;;;;;;;11.00;80.20;;;;;;5126131;27;19980;-71
2023/04/19 08:49:07;;;;;;;;;;;11.10;77.50;;;;;;5131210;28;19920;-71
2023/04/19 08:51:33;;;;;;;;;;;11.20;76.70;;;;;;5130921;28;19919;-78
2023/04/19 08:53:59;;;;;;;;;;;11.20;78.50;;;;;;5110712;28;19943;-71
2023/04/19 08:56:25;;;;;;;;;;;11.30;77.50;;;;;;5124788;28;20329;-71
2023/04/19 08:58:51;;;;;;;;;;;11.30;75.20;;;;;;5118415;28;19971;-70
2023/04/19 09:01:16;;;;;;;;;;;11.40;75.90;;;;;;5113675;28;20276;-70
2023/04/19 09:03:44;;;;;;;;;;;11.50;76.10;;;;;;5130179;28;19926;-71
2023/04/19 09:06:10;;;;;;;;;;;11.50;74.10;;;;;;5131665;28;19923;-70
2023/04/19 09:08:40;;;;;;;;;;;11.50;73.80;;;;;;5113411;28;19924;-72
2023/04/19 09:11:05;;;;;;;;;;;11.60;72.30;;;;;;5124986;27;19923;-70
2023/04/19 09:13:31;;;;;;;;;;;11.60;72.20;;;;;;5135808;27;19920;-71
2023/04/19 09:15:59;;;;;;;;;;;11.60;72.20;;;;;;5135464;27;19925;-72
2023/04/19 09:18:25;;;;;;;;;;;11.70;72.00;;;;;;5134956;27;19964;-71
2023/04/19 09:20:56;;;;;;;;;;;11.80;72.30;;;;;;5135483;27;19923;-71
2023/04/19 09:23:24;;;;;;;;;;;11.90;73.80;;;;;;5116981;27;19919;-70
2023/04/19 09:26:03;;;;;;;;;;;12.00;72.20;;;;;;5104332;28;19931;-71
2023/04/19 09:28:29;;;;;;;;;;;12.00;69.90;;;;;;5116384;27;20296;-72
2023/04/19 09:30:55;;;;;;;;;;;12.00;69.80;;;;;;5119136;27;20711;-71
2023/04/19 09:33:39;;;;;;;;;;;12.00;69.60;;;;;;5145160;27;19919;-71
2023/04/19 09:36:05;;;;;;;;;;;12.00;69.10;;;;;;5135782;27;20384;-71
2023/04/19 09:38:51;;;;;;;;;;;12.10;69.20;;;;;;5124952;27;19970;-70
2023/04/19 09:41:16;;;;;;;;;;;12.10;68.00;;;;;;5114491;27;19963;-71
2023/04/19 09:43:42;;;;;;;;;;;12.10;67.30;;;;;;5134731;27;19969;-72
2023/04/19 09:46:08;;;;;;;;;;;12.20;68.40;;;;;;5135572;27;19930;-72
2023/04/19 09:48:35;;;;;;;;;;;12.30;67.40;;;;;;5132306;27;20009;-71
2023/04/19 09:51:01;;;;;;;;;;;12.40;68.90;;;;;;5118294;27;20006;-74
2023/04/19 09:53:27;;;;;;;;;;;12.40;66.70;;;;;;5114053;28;20014;-71
2023/04/19 09:55:53;;;;;;;;;;;12.50;66.00;;;;;;5113761;28;20377;-71
2023/04/19 09:58:20;;;;;;;;;;;12.50;66.40;;;;;;5114587;28;19930;-71
2023/04/19 10:00:46;;;;;;;;;;;12.60;66.80;;;;;;5114215;28;19966;-71
2023/04/19 10:03:13;;;;;;;;;;;12.70;66.90;;;;;;5114122;28;19941;-72
2023/04/19 10:05:40;;;;;;;;;;;12.80;67.80;;;;;;5095663;28;19920;-76
2023/04/19 10:08:10;;;;;;;;;;;12.90;66.80;;;;;;5113567;28;19920;-71
2023/04/19 10:10:36;;;;;;;;;;;13.00;62.70;;;;;;5131162;27;19976;-71
2023/04/19 10:13:03;;;;;;;;;;;13.10;62.30;;;;;;5134479;27;19996;-72
2023/04/19 10:15:29;;;;;;;;;;;13.20;62.90;;;;;;5122816;27;19941;-71
2023/04/19 10:17:55;;;;;;;;;;;13.20;62.10;;;;;;5127819;27;19919;-72
2023/04/19 10:20:23;;;;;;;;;;;13.30;61.10;;;;;;5133423;27;19920;-73
2023/04/19 10:22:48;;;;;;;;;;;13.30;60.90;;;;;;5133378;27;20331;-75
2023/04/19 10:25:14;;;;;;;;;;;13.50;59.90;;;;;;5134412;27;20002;-72
2023/04/19 10:27:44;;;;;;;;;;;13.60;58.60;;;;;;5134486;27;20283;-76
2023/04/19 10:30:17;;;;;;;;;;;13.60;59.80;;;;;;5133296;27;19934;-72
2023/04/19 10:32:43;;;;;;;;;;;13.70;60.80;;;;;;5134860;27;19919;-74
2023/04/19 10:35:15;;;;;;;;;;;13.80;57.70;;;;;;5124878;27;19926;-71
2023/04/19 10:38:00;;;;;;;;;;;14.00;57.00;;;;;;5119164;27;19954;-76
2023/04/19 10:40:44;;;;;;;;;;;13.80;58.70;;;;;;5133729;27;19982;-71
2023/04/19 10:43:10;;;;;;;;;;;14.20;58.40;;;;;;5134030;27;20003;-75
2023/04/19 10:45:36;;;;;;;;;;;14.10;58.50;;;;;;5120280;27;20281;-75
2023/04/19 10:48:03;;;;;;;;;;;14.10;57.30;;;;;;5122400;27;19950;-75
2023/04/19 10:50:28;;;;;;;;;;;14.20;57.90;;;;;;5117553;27;19924;-74
2023/04/19 10:52:54;;;;;;;;;;;14.30;58.60;;;;;;5121699;27;20454;-74
2023/04/19 10:55:20;;;;;;;;;;;14.50;57.80;;;;;;5117688;27;20014;-74
2023/04/19 10:58:02;;;;;;;;;;;14.60;57.30;;;;;;5113429;27;20318;-74
2023/04/19 11:00:30;;;;;;;;;;;14.70;57.50;;;;;;5133375;27;20387;-71
2023/04/19 11:02:56;;;;;;;;;;;14.80;55.20;;;;;;5105848;28;20018;-72
2023/04/19 11:05:22;;;;;;;;;;;14.90;56.60;;;;;;5126756;27;19954;-71
2023/04/19 11:07:48;;;;;;;;;;;15.10;55.00;;;;;;5116961;27;19978;-73
2023/04/19 11:10:26;;;;;;;;;;;15.10;55.60;;;;;;5103219;28;20342;-72
2023/04/19 11:12:51;;;;;;;;;;;15.20;54.20;;;;;;5124960;27;19920;-74
2023/04/19 11:15:20;;;;;;;;;;;15.30;54.60;;;;;;5112925;28;19927;-72
2023/04/19 11:17:49;;;;;;;;;;;15.40;54.30;;;;;;5111650;28;19920;-77
2023/04/19 11:20:14;;;;;;;;;;;15.50;53.20;;;;;;5125759;27;20022;-74
2023/04/19 11:22:41;;;;;;;;;;;15.90;53.40;;;;;;5116641;27;20415;-73
2023/04/19 11:25:15;;;;;;;;;;;17.20;52.90;;;;;;5114139;27;19951;-73
2023/04/19 11:27:41;;;;;;;;;;;19.00;51.10;;;;;;5133073;27;19923;-73
2023/04/19 11:30:11;;;;;;;;;;;20.80;54.00;;;;;;5087065;28;19927;-72
2023/04/19 11:32:37;;;;;;;;;;;22.10;49.70;;;;;;5120901;27;19966;-75
2023/04/19 11:35:07;;;;;;;;;;;23.40;47.70;;;;;;5120763;27;19920;-73
2023/04/19 11:37:34;;;;;;;;;;;24.40;45.30;;;;;;5115892;27;20399;-73
2023/04/19 11:39:59;;;;;;;;;;;25.30;43.50;;;;;;5120793;27;20014;-73
2023/04/19 11:42:25;;;;;;;;;;;25.90;45.00;;;;;;5112059;27;20026;-73
2023/04/19 11:44:51;;;;;;;;;;;26.00;41.50;;;;;;5121362;27;19965;-73
2023/04/19 11:47:16;;;;;;;;;;;26.40;42.20;;;;;;5117929;27;19920;-73
2023/04/19 11:49:42;;;;;;;;;;;26.90;41.50;;;;;;5132223;27;19965;-73
2023/04/19 11:52:08;;;;;;;;;;;27.10;41.80;;;;;;5124546;27;19923;-75
2023/04/19 11:54:33;;;;;;;;;;;27.20;39.70;;;;;;5121878;27;19923;-72
2023/04/19 11:57:03;;;;;;;;;;;27.40;38.60;;;;;;5131287;27;19965;-74
2023/04/19 11:59:30;;;;;;;;;;;27.50;40.90;;;;;;5114694;27;19920;-73
2023/04/19 12:01:56;;;;;;;;;;;27.20;38.50;;;;;;5129871;27;19966;-73
2023/04/19 12:04:22;;;;;;;;;;;27.10;38.60;;;;;;5132265;27;19919;-73
2023/04/19 12:07:00;;;;;;;;;;;27.30;38.70;;;;;;5132455;27;19919;-74
2023/04/19 12:09:25;;;;;;;;;;;27.70;39.90;;;;;;5131354;27;20444;-73
2023/04/19 12:11:51;;;;;;;;;;;28.00;39.20;;;;;;5131838;27;19923;-78
2023/04/19 12:14:21;;;;;;;;;;;28.10;39.20;;;;;;5118606;27;19919;-73
2023/04/19 12:17:06;;;;;;;;;;;28.00;38.70;;;;;;5108120;27;19933;-73
2023/04/19 12:19:41;;;;;;;;;;;28.30;39.10;;;;;;5131831;27;19923;-73
2023/04/19 12:22:07;;;;;;;;;;;28.40;37.20;;;;;;5117975;27;19923;-72
2023/04/19 12:24:32;;;;;;;;;;;28.40;39.30;;;;;;5131519;27;19923;-73
2023/04/19 12:26:59;;;;;;;;;;;28.10;37.20;;;;;;5131514;27;19930;-73
2023/04/19 12:29:25;;;;;;;;;;;27.80;37.40;;;;;;5114054;27;20446;-72
2023/04/19 12:31:51;;;;;;;;;;;27.80;38.10;;;;;;5112635;27;20268;-78
2023/04/19 12:34:17;;;;;;;;;;;27.80;37.20;;;;;;5111224;27;19923;-74
2023/04/19 12:36:42;;;;;;;;;;;27.90;37.50;;;;;;5129649;27;19930;-73
2023/04/19 12:39:08;;;;;;;;;;;28.00;39.20;;;;;;5098634;28;20424;-73
2023/04/19 12:41:34;;;;;;;;;;;28.30;39.00;;;;;;5117797;27;20439;-73
2023/04/19 12:43:59;;;;;;;;;;;28.50;38.90;;;;;;5117857;27;19919;-73
2023/04/19 12:46:25;;;;;;;;;;;28.60;38.00;;;;;;5127274;27;20070;-73
2023/04/19 12:48:51;;;;;;;;;;;28.80;37.50;;;;;;5126500;27;19926;-73
2023/04/19 12:51:16;;;;;;;;;;;28.90;37.10;;;;;;5131138;28;20019;-73
2023/04/19 12:53:46;;;;;;;;;;;29.20;38.60;;;;;;5130901;28;20394;-79
2023/04/19 12:56:12;;;;;;;;;;;29.60;38.00;;;;;;5113278;28;19919;-79
2023/04/19 12:58:37;;;;;;;;;;;29.10;37.70;;;;;;5101616;28;19930;-79
2023/04/19 13:01:03;;;;;;;;;;;28.10;37.60;;;;;;5110903;28;20057;-79
2023/04/19 13:03:31;;;;;;;;;;;27.20;38.00;;;;;;5109164;28;19923;-79
2023/04/19 13:05:57;;;;;;;;;;;26.50;38.30;;;;;;5119699;28;19926;-79
2023/04/19 13:08:22;;;;;;;;;;;25.70;37.90;;;;;;5127278;28;19923;-79
2023/04/19 13:10:48;;;;;;;;;;;25.20;38.80;;;;;;5111360;28;19977;-79
2023/04/19 13:13:14;;;;;;;;;;;24.90;39.60;;;;;;5126805;28;20018;-79
2023/04/19 13:15:40;;;;;;;;;;;24.60;40.70;;;;;;5127689;28;19920;-79
2023/04/19 13:18:06;;;;;;;;;;;24.50;41.20;;;;;;5110013;28;20014;-79
2023/04/19 13:20:31;;;;;;;;;;;24.40;41.40;;;;;;5110882;28;20022;-79
2023/04/19 13:22:57;;;;;;;;;;;24.40;42.80;;;;;;5100318;28;19928;-79
2023/04/19 13:25:23;;;;;;;;;;;24.50;42.90;;;;;;5131360;28;19923;-79
2023/04/19 13:27:49;;;;;;;;;;;24.40;42.00;;;;;;5113451;28;19976;-79
2023/04/19 13:30:14;;;;;;;;;;;24.50;40.90;;;;;;5131291;28;19927;-79
2023/04/19 13:32:40;;;;;;;;;;;24.40;41.10;;;;;;5131248;28;19930;-77
2023/04/19 13:35:06;;;;;;;;;;;24.50;40.60;;;;;;5094997;28;20369;-77
2023/04/19 13:37:31;;;;;;;;;;;24.60;43.00;;;;;;5112081;28;19919;-76
2023/04/19 13:39:57;;;;;;;;;;;24.80;40.70;;;;;;5129544;28;19926;-77
2023/04/19 13:42:25;;;;;;;;;;;24.50;41.10;;;;;;5126857;28;19969;-77
2023/04/19 13:44:51;;;;;;;;;;;24.30;41.40;;;;;;5111226;28;19920;-77
2023/04/19 13:47:16;;;;;;;;;;;24.10;39.60;;;;;;5120036;28;19919;-77
2023/04/19 13:49:42;;;;;;;;;;;24.00;40.00;;;;;;5112898;28;19977;-77
2023/04/19 13:52:08;;;;;;;;;;;24.10;40.70;;;;;;5130671;28;20029;-77
2023/04/19 13:54:33;;;;;;;;;;;24.30;41.00;;;;;;5129943;27;19920;-77
2023/04/19 13:56:59;;;;;;;;;;;24.50;40.10;;;;;;5132963;27;20647;-76
2023/04/19 13:59:25;;;;;;;;;;;24.70;40.20;;;;;;5115863;27;19926;-84
2023/04/19 14:01:50;;;;;;;;;;;24.80;38.80;;;;;;5115472;27;19973;-74
2023/04/19 14:04:16;;;;;;;;;;;24.80;39.10;;;;;;5131723;27;19926;-79
2023/04/19 14:06:42;;;;;;;;;;;25.10;39.30;;;;;;5112848;27;19960;-78
2023/04/19 14:09:07;;;;;;;;;;;24.80;37.50;;;;;;5114009;27;19930;-79
2023/04/19 14:11:33;;;;;;;;;;;24.50;39.40;;;;;;5133904;27;20022;-79
2023/04/19 14:13:58;;;;;;;;;;;24.50;39.10;;;;;;5133945;27;20395;-77
2023/04/19 14:16:24;;;;;;;;;;;24.60;38.30;;;;;;5136681;27;19930;-75
2023/04/19 14:18:50;;;;;;;;;;;24.10;39.10;;;;;;5123910;27;20291;-81